Time;durP1;ratioP1;P1;durP2;ratioP2;P2;SDS_P1;SDS_P2;PMS_P1;PMS_P2;Temp;Humidity;BMP_temperature;BMP_pressure;BME280_temperature;BME280_humidity;BME280_pressure;Samples;Min_cycle;Max_cycle;Signal;HPM_P1;HPM_P2
2022/05/28 00:00:20;;;;;;;3.08;1.27;;;;;;;21.64;46.36;101448.53;5069290;28;20032;-62
2022/05/28 00:02:47;;;;;;;2.92;1.10;;;;;;;21.71;45.92;101465.44;5070442;28;20017;-62
2022/05/28 00:05:13;;;;;;;2.17;1.10;;;;;;;21.82;45.17;101456.22;5056669;28;20029;-61
2022/05/28 00:07:40;;;;;;;2.58;1.20;;;;;;;21.71;45.10;101455.41;5072179;28;20025;-60
2022/05/28 00:10:10;;;;;;;2.20;1.10;;;;;;;21.41;46.34;101455.22;5073153;28;20445;-60
2022/05/28 00:12:36;;;;;;;4.47;1.33;;;;;;;21.46;47.02;101445.19;5071366;28;20028;-61
2022/05/28 00:15:04;;;;;;;3.00;1.10;;;;;;;21.26;46.56;101462.16;5067424;28;20134;-61
2022/05/28 00:17:30;;;;;;;2.65;1.15;;;;;;;21.03;47.01;101443.50;5059727;28;20029;-60
2022/05/28 00:19:56;;;;;;;1.17;1.00;;;;;;;20.77;47.34;101453.38;5054542;28;20059;-60
2022/05/28 00:22:22;;;;;;;1.88;1.08;;;;;;;20.85;47.59;101457.53;5068698;28;20150;-61
2022/05/28 00:24:49;;;;;;;3.85;0.90;;;;;;;20.72;48.05;101454.16;5072738;28;20025;-60
2022/05/28 00:27:15;;;;;;;2.45;1.00;;;;;;;20.72;48.36;101458.78;5060443;28;20032;-60
2022/05/28 00:29:41;;;;;;;1.77;0.80;;;;;;;20.73;48.96;101461.22;5062230;28;20025;-60
2022/05/28 00:32:08;;;;;;;4.35;1.27;;;;;;;20.73;49.00;101455.78;5065137;28;20035;-60
2022/05/28 00:34:36;;;;;;;2.70;0.90;;;;;;;20.65;48.19;101464.41;5067523;28;20041;-60
2022/05/28 00:37:04;;;;;;;1.30;0.82;;;;;;;20.69;48.30;101465.53;5065113;28;20039;-60
2022/05/28 00:39:30;;;;;;;2.67;0.93;;;;;;;20.44;49.27;101468.00;5074303;28;20035;-60
2022/05/28 00:41:57;;;;;;;0.85;0.70;;;;;;;20.55;48.68;101478.75;5068096;28;20035;-60
2022/05/28 00:44:24;;;;;;;4.00;0.90;;;;;;;20.36;48.71;101471.16;5062856;28;20041;-61
2022/05/28 00:46:53;;;;;;;1.77;0.88;;;;;;;20.32;48.89;101473.56;5068892;28;20025;-58
2022/05/28 00:49:26;;;;;;;2.65;0.88;;;;;;;20.04;50.04;101466.44;5064903;28;20147;-59
2022/05/28 00:51:54;;;;;;;1.75;1.23;;;;;;;20.18;49.01;101466.91;5078655;22;20028;-59
2022/05/28 00:54:21;;;;;;;2.10;1.27;;;;;;;19.94;50.15;101469.06;5054222;28;20025;-59
2022/05/28 00:56:49;;;;;;;4.05;1.45;;;;;;;20.04;50.55;101463.72;5053793;28;20052;-59
2022/05/28 00:59:16;;;;;;;2.08;0.90;;;;;;;19.92;50.04;101472.03;5053116;28;20032;-59
2022/05/28 01:01:43;;;;;;;2.95;1.00;;;;;;;19.94;49.78;101471.78;5053930;28;20025;-59
2022/05/28 01:04:50;;;;;;;1.80;1.08;;;;;;;19.79;50.49;101466.97;5053978;28;20397;-59
2022/05/28 01:07:45;;;;;;;2.45;0.90;;;;;;;19.71;50.86;101473.69;5050489;28;20047;-59
2022/05/28 01:10:11;;;;;;;4.28;1.00;;;;;;;19.75;50.41;101472.06;5051111;28;20056;-59
2022/05/28 01:12:47;;;;;;;2.30;0.85;;;;;;;19.71;50.82;101465.53;5053089;28;20067;-59
2022/05/28 01:15:53;;;;;;;2.35;1.00;;;;;;;19.45;51.61;101456.16;5053960;28;20070;-59
2022/05/28 01:18:33;;;;;;;3.60;1.30;;;;;;;19.50;51.29;101455.44;5040964;28;20636;-59
2022/05/28 01:21:10;;;;;;;1.77;1.17;;;;;;;19.18;52.21;101461.47;5054875;28;20029;-58
2022/05/28 01:24:00;;;;;;;3.50;1.02;;;;;;;19.05;52.32;101469.97;5044813;28;20090;-59
2022/05/28 01:26:54;;;;;;;9.18;1.52;;;;;;;19.22;52.50;101467.25;5032960;28;20565;-59
2022/05/28 01:29:22;;;;;;;3.45;1.30;;;;;;;19.10;52.98;101469.19;5032826;28;20096;-58
2022/05/28 01:31:49;;;;;;;2.45;1.15;;;;;;;19.18;51.73;101472.31;5033128;28;20116;-58
2022/05/28 01:34:19;;;;;;;2.45;1.00;;;;;;;19.16;52.15;101463.63;5033284;28;20064;-59
2022/05/28 01:36:48;;;;;;;4.50;1.52;;;;;;;19.31;51.18;101468.44;5036609;28;20021;-58
2022/05/28 01:39:16;;;;;;;1.67;0.82;;;;;;;19.32;50.59;101464.69;5032121;28;20021;-58
2022/05/28 01:41:43;;;;;;;2.88;1.13;;;;;;;19.16;51.41;101465.50;5033605;28;20533;-58
2022/05/28 01:44:12;;;;;;;0.90;0.60;;;;;;;19.12;51.31;101467.91;5033141;28;20107;-58
2022/05/28 01:46:41;;;;;;;1.33;0.70;;;;;;;19.20;51.95;101462.03;5052791;28;20053;-59
2022/05/28 01:49:11;;;;;;;1.58;0.70;;;;;;;19.08;51.37;101461.31;5052844;28;20036;-58
2022/05/28 01:51:51;;;;;;;2.47;1.10;;;;;;;19.04;51.73;101468.28;5052861;28;20110;-58
2022/05/28 01:54:21;;;;;;;2.55;1.00;;;;;;;18.85;51.67;101469.63;5051338;28;20041;-58
2022/05/28 01:56:52;;;;;;;1.90;0.98;;;;;;;18.76;51.55;101465.66;5033164;28;20032;-58
2022/05/28 01:59:26;;;;;;;1.33;0.77;;;;;;;18.30;52.80;101465.63;5033470;28;20037;-58
2022/05/28 02:01:56;;;;;;;1.95;0.90;;;;;;;18.72;52.27;101463.44;5031005;28;20441;-58
2022/05/28 02:04:23;;;;;;;1.52;0.65;;;;;;;19.16;51.89;101452.78;5039652;28;20033;-58
2022/05/28 02:06:49;;;;;;;2.65;0.90;;;;;;;19.15;51.24;101461.13;5041022;28;20023;-58
2022/05/28 02:09:20;;;;;;;1.02;0.70;;;;;;;19.10;50.75;101455.63;5034768;28;20377;-58
2022/05/28 02:12:07;;;;;;;1.83;0.98;;;;;;;18.98;50.62;101464.69;5036282;28;20112;-58
2022/05/28 02:14:45;;;;;;;3.38;1.15;;;;;;;19.12;50.57;101473.31;5051848;28;20025;-58
2022/05/28 02:17:39;;;;;;;1.23;0.88;;;;;;;19.11;50.82;101458.13;5039519;28;20105;-58
2022/05/28 02:20:28;;;;;;;1.58;0.95;;;;;;;18.93;51.31;101458.34;5032217;28;20022;-57
2022/05/28 02:23:05;;;;;;;3.17;0.93;;;;;;;18.68;51.56;101451.44;5031950;28;20021;-58
2022/05/28 02:25:42;;;;;;;0.90;0.73;;;;;;;18.81;51.32;101452.19;5031074;28;20109;-58
2022/05/28 02:28:10;;;;;;;3.85;0.90;;;;;;;19.05;50.97;101453.69;5033904;28;20029;-58
2022/05/28 02:30:56;;;;;;;1.63;0.77;;;;;;;19.18;50.64;101449.78;5050705;28;20628;-57
2022/05/28 02:33:23;;;;;;;2.67;0.88;;;;;;;18.74;51.46;101455.06;5036932;28;20027;-57
2022/05/28 02:35:49;;;;;;;1.10;0.70;;;;;;;18.31;52.87;101461.03;5032070;28;20041;-57
2022/05/28 02:38:17;;;;;;;2.92;0.80;;;;;;;18.25;52.97;101468.22;5030441;28;20029;-58
2022/05/28 02:40:43;;;;;;;3.90;1.15;;;;;;;17.76;53.93;101450.72;5031635;28;20025;-57
2022/05/28 02:43:11;;;;;;;1.58;1.00;;;;;;;17.81;54.26;101451.66;5031901;28;20025;-57
2022/05/28 02:45:38;;;;;;;2.50;1.10;;;;;;;17.77;54.65;101449.69;5032037;28;20026;-58
2022/05/28 02:48:05;;;;;;;1.60;1.00;;;;;;;17.34;56.25;101458.97;5031887;28;20048;-58
2022/05/28 02:50:31;;;;;;;2.70;0.80;;;;;;;17.24;56.09;101459.56;5032382;28;20541;-57
2022/05/28 02:52:58;;;;;;;2.03;0.90;;;;;;;17.18;56.81;101452.41;5031244;28;20059;-57
2022/05/28 02:55:24;;;;;;;1.30;0.70;;;;;;;16.96;57.29;101448.63;5031630;28;20084;-57
2022/05/28 02:57:51;;;;;;;1.73;0.90;;;;;;;16.77;57.56;101445.19;5031663;28;20103;-57
2022/05/28 03:00:18;;;;;;;2.53;1.10;;;;;;;16.33;59.18;101449.97;5031605;28;20033;-57
2022/05/28 03:02:45;;;;;;;2.67;0.88;;;;;;;16.21;59.32;101449.06;5031720;28;20025;-57
2022/05/28 03:05:13;;;;;;;2.90;0.95;;;;;;;16.04;60.20;101457.78;5037679;28;20029;-57
2022/05/28 03:07:40;;;;;;;2.58;1.00;;;;;;;16.08;60.32;101460.88;5034490;28;20466;-57
2022/05/28 03:10:06;;;;;;;2.28;0.80;;;;;;;16.09;59.98;101463.34;5031307;28;20029;-57
2022/05/28 03:12:33;;;;;;;0.88;0.57;;;;;;;15.83;60.80;101461.81;5031574;28;20049;-56
2022/05/28 03:14:59;;;;;;;1.85;0.70;;;;;;;15.59;61.70;101457.25;5031738;28;20097;-58
2022/05/28 03:17:25;;;;;;;1.17;0.80;;;;;;;15.42;62.37;101450.81;5030360;28;20033;-58
2022/05/28 03:19:51;;;;;;;2.33;0.85;;;;;;;15.37;62.42;101451.47;5031330;28;20052;-56
2022/05/28 03:22:18;;;;;;;0.70;0.60;;;;;;;15.41;62.30;101451.84;5033256;28;20049;-56
2022/05/28 03:24:44;;;;;;;1.65;0.52;;;;;;;15.22;63.00;101451.03;5039652;28;20048;-56
2022/05/28 03:27:11;;;;;;;2.15;0.80;;;;;;;15.18;63.00;101450.63;5051433;28;20025;-57
2022/05/28 03:29:37;;;;;;;0.77;0.60;;;;;;;15.24;62.94;101447.03;5051021;28;20079;-57
2022/05/28 03:32:03;;;;;;;3.47;0.70;;;;;;;15.17;63.27;101450.84;5051416;28;20400;-56
2022/05/28 03:34:30;;;;;;;2.00;0.95;;;;;;;15.20;63.13;101445.00;5051006;28;20025;-57
2022/05/28 03:36:56;;;;;;;0.90;0.50;;;;;;;14.96;64.10;101438.59;5051040;28;20139;-56
2022/05/28 03:39:22;;;;;;;0.77;0.47;;;;;;;14.84;64.33;101438.47;5051073;28;20025;-56
2022/05/28 03:41:49;;;;;;;2.60;1.20;;;;;;;14.80;64.65;101434.56;5033564;28;20112;-57
2022/05/28 03:44:15;;;;;;;1.13;0.70;;;;;;;14.85;64.71;101440.13;5035462;28;20022;-58
2022/05/28 03:46:42;;;;;;;1.10;0.70;;;;;;;14.78;64.54;101442.88;5047164;28;20036;-56
2022/05/28 03:49:21;;;;;;;1.38;0.85;;;;;;;14.64;65.28;101444.00;5052229;28;20104;-58
2022/05/28 03:51:48;;;;;;;0.77;0.57;;;;;;;14.51;65.47;101442.22;5049477;28;20028;-57
2022/05/28 03:54:15;;;;;;;0.68;0.60;;;;;;;14.51;65.32;101452.19;5035184;28;20029;-57
2022/05/28 03:56:43;;;;;;;0.65;0.50;;;;;;;14.44;65.72;101459.47;5036143;28;20049;-57
2022/05/28 03:59:10;;;;;;;2.25;0.40;;;;;;;14.21;66.30;101458.13;5034915;28;20037;-57
2022/05/28 04:01:37;;;;;;;0.52;0.47;;;;;;;14.22;66.21;101453.56;5049231;28;20029;-57
2022/05/28 04:04:04;;;;;;;1.20;0.60;;;;;;;14.04;66.75;101453.44;5054157;28;20029;-57
2022/05/28 04:06:32;;;;;;;0.50;0.50;;;;;;;14.20;66.34;101452.94;5054783;28;20516;-57
2022/05/28 04:08:58;;;;;;;2.58;0.50;;;;;;;14.07;66.72;101445.75;5054562;28;20045;-57
2022/05/28 04:11:24;;;;;;;0.43;0.43;;;;;;;14.20;66.23;101436.78;5055029;28;20028;-57
2022/05/28 04:13:51;;;;;;;0.50;0.50;;;;;;;14.21;66.49;101424.97;5051966;28;20037;-57
2022/05/28 04:16:17;;;;;;;0.40;0.40;;;;;;;14.05;66.95;101430.84;5034824;28;20072;-58
2022/05/28 04:18:43;;;;;;;0.30;0.30;;;;;;;14.00;67.07;101428.81;5052349;28;20056;-56
2022/05/28 04:21:10;;;;;;;0.30;0.30;;;;;;;14.02;67.17;101442.88;5054657;28;20033;-58
2022/05/28 04:23:36;;;;;;;0.70;0.30;;;;;;;13.93;67.14;101444.97;5054566;28;20046;-58
2022/05/28 04:26:02;;;;;;;1.85;0.40;;;;;;;14.08;66.60;101435.81;5053000;28;20304;-58
2022/05/28 04:28:29;;;;;;;0.35;0.30;;;;;;;14.06;66.41;101443.28;5054468;28;20024;-58
2022/05/28 04:30:56;;;;;;;0.30;0.30;;;;;;;14.08;66.22;101452.78;5050696;28;20167;-58
2022/05/28 04:33:22;;;;;;;1.10;0.50;;;;;;;14.15;66.12;101447.38;5034330;28;20029;-58
2022/05/28 04:35:48;;;;;;;0.50;0.47;;;;;;;14.25;65.97;101451.25;5034259;28;20033;-58
2022/05/28 04:38:14;;;;;;;0.55;0.40;;;;;;;14.16;66.42;101454.44;5034301;28;20394;-59
2022/05/28 04:40:41;;;;;;;0.40;0.40;;;;;;;13.83;67.53;101443.81;5040705;28;20741;-58
2022/05/28 04:43:07;;;;;;;0.47;0.40;;;;;;;14.09;66.34;101449.06;5054355;28;20575;-58
2022/05/28 04:45:33;;;;;;;0.40;0.40;;;;;;;13.90;67.35;101445.44;5054184;28;20135;-58
2022/05/28 04:47:59;;;;;;;0.50;0.40;;;;;;;13.89;67.55;101451.84;5046127;28;20470;-58
2022/05/28 04:50:26;;;;;;;0.60;0.38;;;;;;;14.02;66.89;101471.66;5033574;28;20504;-58
2022/05/28 04:52:52;;;;;;;0.50;0.40;;;;;;;14.02;67.00;101479.75;5033698;28;20053;-58
2022/05/28 04:55:19;;;;;;;1.13;0.38;;;;;;;14.02;67.42;101480.56;5033096;28;20030;-58
2022/05/28 04:57:45;;;;;;;1.17;0.40;;;;;;;14.07;67.33;101478.06;5036677;28;20040;-58
2022/05/28 05:00:18;;;;;;;0.45;0.43;;;;;;;14.16;66.88;101475.97;5053545;28;20426;-58
2022/05/28 05:02:44;;;;;;;1.15;0.40;;;;;;;14.16;66.62;101466.03;5053199;28;20114;-58
2022/05/28 05:05:11;;;;;;;0.50;0.40;;;;;;;14.05;66.69;101463.16;5043955;22;20604;-58
2022/05/28 05:07:37;;;;;;;1.13;0.40;;;;;;;14.15;66.36;101468.91;5033765;28;20101;-58
2022/05/28 05:10:04;;;;;;;1.10;0.57;;;;;;;13.96;67.53;101470.66;5032406;28;20033;-58
2022/05/28 05:12:30;;;;;;;1.17;0.40;;;;;;;13.88;68.05;101484.34;5033500;28;20032;-58
2022/05/28 05:14:57;;;;;;;0.43;0.30;;;;;;;13.92;67.65;101481.00;5022402;28;20029;-58
2022/05/28 05:17:23;;;;;;;0.55;0.28;;;;;;;13.93;67.88;101497.97;5016369;28;20033;-58
2022/05/28 05:19:49;;;;;;;0.40;0.40;;;;;;;13.91;68.19;101500.91;5013088;28;20033;-58
2022/05/28 05:22:15;;;;;;;0.43;0.43;;;;;;;13.96;68.14;101508.34;4997137;28;20021;-58
2022/05/28 05:24:42;;;;;;;1.42;0.40;;;;;;;13.92;68.20;101494.47;5013531;28;20065;-57
2022/05/28 05:27:10;;;;;;;0.95;0.60;;;;;;;13.93;68.15;101479.16;5013364;28;20088;-58
2022/05/28 05:29:36;;;;;;;0.30;0.30;;;;;;;14.04;67.84;101486.56;5018688;28;20053;-58
2022/05/28 05:32:03;;;;;;;1.00;0.70;;;;;;;14.06;67.96;101497.13;5022076;28;20030;-57
2022/05/28 05:34:29;;;;;;;0.50;0.40;;;;;;;14.17;67.85;101493.78;5020917;28;20043;-58
2022/05/28 05:36:56;;;;;;;2.25;0.47;;;;;;;13.97;68.55;101483.91;5016068;28;20032;-58
2022/05/28 05:39:22;;;;;;;0.60;0.60;;;;;;;13.93;68.82;101481.84;5012033;28;20058;-58
2022/05/28 05:41:49;;;;;;;0.47;0.40;;;;;;;14.14;68.15;101478.84;5016141;28;20481;-58
2022/05/28 05:44:16;;;;;;;1.20;0.40;;;;;;;14.08;68.33;101485.09;5013236;28;20022;-58
2022/05/28 05:46:43;;;;;;;0.47;0.30;;;;;;;13.91;69.12;101481.22;5022003;28;20036;-58
2022/05/28 05:49:11;;;;;;;1.90;0.50;;;;;;;13.90;69.39;101487.66;5022072;28;20120;-58
2022/05/28 05:51:44;;;;;;;1.63;0.40;;;;;;;13.97;69.24;101489.28;5014179;28;20036;-58
2022/05/28 05:54:10;;;;;;;1.30;0.50;;;;;;;14.04;69.08;101499.19;5013879;28;20030;-59
2022/05/28 05:56:37;;;;;;;1.80;0.50;;;;;;;13.91;69.35;101497.38;4995231;28;20037;-58
2022/05/28 05:59:03;;;;;;;0.73;0.38;;;;;;;13.81;69.86;101483.53;5015636;28;20033;-58
2022/05/28 06:01:30;;;;;;;1.08;0.57;;;;;;;13.87;69.67;101488.88;5023776;28;20504;-58
2022/05/28 06:03:56;;;;;;;0.55;0.38;;;;;;;13.93;69.34;101488.03;5010267;28;20517;-58
2022/05/28 06:06:22;;;;;;;1.20;0.60;;;;;;;14.06;68.94;101478.28;5023040;28;20021;-58
2022/05/28 06:08:49;;;;;;;0.65;0.40;;;;;;;13.94;69.48;101478.94;5012325;28;20026;-58
2022/05/28 06:11:17;;;;;;;1.83;0.90;;;;;;;14.07;69.36;101483.44;5026600;28;20037;-58
2022/05/28 06:13:43;;;;;;;1.00;0.30;;;;;;;13.97;69.67;101483.06;5023556;28;20536;-58
2022/05/28 06:16:10;;;;;;;0.63;0.50;;;;;;;13.86;69.76;101476.47;5012539;28;20479;-58
2022/05/28 06:18:36;;;;;;;0.95;0.57;;;;;;;13.77;70.27;101461.63;5010905;28;20033;-57
2022/05/28 06:21:03;;;;;;;1.33;0.40;;;;;;;13.99;69.41;101465.69;5011326;28;20101;-56
2022/05/28 06:23:30;;;;;;;1.20;0.43;;;;;;;13.93;69.84;101471.88;5012407;28;20419;-58
2022/05/28 06:25:57;;;;;;;0.47;0.38;;;;;;;13.89;69.94;101470.69;5018563;28;20091;-57
2022/05/28 06:28:23;;;;;;;0.93;0.50;;;;;;;13.95;69.73;101467.13;5012627;28;20049;-57
2022/05/28 06:30:51;;;;;;;1.85;0.57;;;;;;;13.87;70.39;101472.75;5012780;28;20026;-58
2022/05/28 06:33:18;;;;;;;1.23;0.52;;;;;;;13.95;70.14;101467.13;5013113;28;20478;-58
2022/05/28 06:35:44;;;;;;;0.50;0.40;;;;;;;13.97;69.82;101473.13;5012518;28;20022;-58
2022/05/28 06:38:11;;;;;;;0.32;0.32;;;;;;;13.98;69.79;101477.47;5012469;28;20113;-58
2022/05/28 06:40:37;;;;;;;0.60;0.50;;;;;;;14.03;69.55;101468.75;5012146;28;20033;-58
2022/05/28 06:43:04;;;;;;;0.50;0.30;;;;;;;13.99;69.45;101476.44;5015333;28;20039;-57
2022/05/28 06:45:30;;;;;;;0.98;0.30;;;;;;;13.94;69.83;101476.25;5012173;28;20018;-58
2022/05/28 06:47:56;;;;;;;0.73;0.40;;;;;;;13.97;69.74;101478.50;5013228;28;20026;-58
2022/05/28 06:53:09;;;;;;;0.50;0.50;;;;;;;13.96;69.82;101468.78;5012536;28;20532;-58
2022/05/28 06:55:36;;;;;;;0.55;0.20;;;;;;;14.04;69.30;101464.19;5012017;28;20042;-58
2022/05/28 06:58:03;;;;;;;0.30;0.30;;;;;;;13.93;69.94;101469.19;5011660;28;20033;-58
2022/05/28 07:00:30;;;;;;;0.30;0.20;;;;;;;13.89;70.35;101465.31;5012090;28;20026;-58
2022/05/28 07:02:57;;;;;;;0.30;0.20;;;;;;;13.89;70.53;101465.31;5012008;28;20022;-58
2022/05/28 07:05:23;;;;;;;0.32;0.30;;;;;;;14.03;70.12;101459.84;5021708;28;20045;-58
2022/05/28 07:07:50;;;;;;;1.13;0.38;;;;;;;14.15;69.94;101458.97;5024024;28;20426;-58
2022/05/28 07:10:16;;;;;;;0.30;0.30;;;;;;;13.99;70.28;101456.75;5011682;28;20080;-58
2022/05/28 07:12:42;;;;;;;0.77;0.45;;;;;;;13.90;70.70;101449.97;5009378;28;20025;-58
2022/05/28 07:15:09;;;;;;;0.60;0.60;;;;;;;13.97;70.57;101450.78;5008928;28;20080;-58
2022/05/28 07:17:35;;;;;;;0.30;0.30;;;;;;;14.03;70.44;101454.47;5011566;28;20044;-58
2022/05/28 07:20:01;;;;;;;1.40;0.50;;;;;;;14.02;70.60;101450.13;5020199;28;20497;-59
2022/05/28 07:22:29;;;;;;;0.50;0.30;;;;;;;14.02;70.11;101436.69;5017465;28;20064;-58
2022/05/28 07:24:55;;;;;;;0.40;0.40;;;;;;;14.06;70.53;101427.97;5018906;28;20054;-58
2022/05/28 07:27:21;;;;;;;0.50;0.40;;;;;;;13.78;71.40;101425.59;5015651;28;20076;-58
2022/05/28 07:29:48;;;;;;;1.10;0.30;;;;;;;13.83;71.40;101422.28;5015618;28;20456;-57
2022/05/28 07:32:14;;;;;;;0.93;0.38;;;;;;;13.52;72.81;101425.69;5015635;28;20066;-58
2022/05/28 07:34:40;;;;;;;0.98;0.40;;;;;;;13.60;72.66;101430.81;5015839;28;20040;-58
2022/05/28 07:37:06;;;;;;;1.25;0.47;;;;;;;13.64;72.45;101434.75;5018357;28;20018;-59
2022/05/28 07:39:32;;;;;;;0.30;0.30;;;;;;;13.77;72.18;101432.03;5016507;28;20585;-58
2022/05/28 07:41:58;;;;;;;0.93;0.40;;;;;;;13.89;71.39;101427.63;5015404;28;20121;-58
2022/05/28 07:44:25;;;;;;;0.40;0.35;;;;;;;13.81;71.77;101433.22;5015446;28;20466;-58
2022/05/28 07:46:51;;;;;;;0.55;0.28;;;;;;;13.91;71.37;101424.72;5015385;28;20045;-58
2022/05/28 07:49:17;;;;;;;0.68;0.40;;;;;;;13.73;71.77;101428.09;5015193;28;20025;-58
2022/05/28 07:51:43;;;;;;;1.27;0.35;;;;;;;13.78;71.69;101436.38;5015494;28;20037;-58
2022/05/28 07:54:09;;;;;;;0.75;0.30;;;;;;;13.64;72.22;101432.06;5015458;28;20026;-58
2022/05/28 07:56:36;;;;;;;0.70;0.30;;;;;;;13.63;72.32;101422.34;5016286;28;20073;-58
2022/05/28 07:59:03;;;;;;;0.25;0.25;;;;;;;13.65;72.24;101421.06;5014956;28;20045;-58
2022/05/28 08:01:36;;;;;;;0.70;0.30;;;;;;;13.77;71.90;101412.34;5015209;28;20484;-58
2022/05/28 08:04:03;;;;;;;0.20;0.20;;;;;;;13.78;71.83;101414.84;5015066;28;20100;-58
2022/05/28 08:06:32;;;;;;;0.35;0.22;;;;;;;13.75;71.94;101415.25;5015039;28;20128;-58
2022/05/28 08:08:59;;;;;;;0.20;0.20;;;;;;;13.73;72.10;101412.78;5014534;28;20033;-58
2022/05/28 08:11:26;;;;;;;1.35;0.52;;;;;;;13.63;72.58;101411.56;5034356;28;20018;-58
2022/05/28 08:13:53;;;;;;;1.85;0.65;;;;;;;13.79;71.90;101416.50;5018805;28;20044;-57
2022/05/28 08:16:20;;;;;;;1.38;0.50;;;;;;;13.62;72.29;101412.63;5016724;28;20063;-58
2022/05/28 08:18:47;;;;;;;0.40;0.40;;;;;;;13.66;72.24;101419.25;5034324;28;20492;-57
2022/05/28 08:23:58;;;;;;;0.43;0.25;;;;;;;13.83;71.36;101400.75;5019308;28;20543;-57
2022/05/28 08:26:25;;;;;;;0.40;0.30;;;;;;;13.82;71.76;101399.06;5026215;28;20033;-58
2022/05/28 08:28:52;;;;;;;0.30;0.20;;;;;;;13.82;71.62;101402.59;5019584;28;20021;-58
2022/05/28 08:31:20;;;;;;;0.70;0.22;;;;;;;13.93;71.11;101401.09;5021197;28;20053;-58
2022/05/28 08:33:47;;;;;;;0.30;0.30;;;;;;;13.92;71.25;101408.34;5022748;28;20026;-58
2022/05/28 08:36:13;;;;;;;0.57;0.15;;;;;;;13.94;71.13;101411.66;5034282;28;20057;-58
2022/05/28 08:38:40;;;;;;;0.98;0.38;;;;;;;13.98;70.84;101404.78;5033738;28;20036;-59
2022/05/28 08:41:14;;;;;;;0.50;0.30;;;;;;;13.85;71.75;101404.88;5034279;28;20421;-58
2022/05/28 08:43:48;;;;;;;0.20;0.20;;;;;;;14.00;70.95;101407.28;5034124;28;20037;-58
2022/05/28 08:46:16;;;;;;;0.20;0.20;;;;;;;14.04;70.57;101408.50;5028854;28;20049;-58
2022/05/28 08:48:52;;;;;;;0.10;0.10;;;;;;;14.08;70.73;101400.81;5014185;28;20105;-58
2022/05/28 08:51:30;;;;;;;0.47;0.20;;;;;;;13.99;70.96;101393.00;5015776;28;20038;-58
2022/05/28 08:54:04;;;;;;;0.73;0.25;;;;;;;14.09;70.81;101387.13;5022472;28;20501;-58
2022/05/28 08:56:31;;;;;;;0.28;0.28;;;;;;;14.02;70.91;101377.47;5017007;28;20026;-58
2022/05/28 08:59:04;;;;;;;0.10;0.10;;;;;;;13.96;71.29;101368.38;5016587;28;20044;-58
2022/05/28 09:01:35;;;;;;;0.10;0.10;;;;;;;13.91;71.46;101369.03;5014173;28;20026;-58
2022/05/28 09:04:06;;;;;;;0.85;0.10;;;;;;;14.03;71.39;101362.97;5016337;28;20038;-58
2022/05/28 09:06:40;;;;;;;0.35;0.30;;;;;;;14.09;71.19;101362.09;5023841;28;20030;-58
2022/05/28 09:09:10;;;;;;;0.20;0.20;;;;;;;14.06;71.03;101367.94;5022008;28;20414;-58
2022/05/28 09:11:39;;;;;;;0.40;0.38;;;;;;;14.10;71.03;101372.66;5030451;28;20029;-58
2022/05/28 09:14:18;;;;;;;0.20;0.20;;;;;;;14.27;70.45;101365.72;5018518;28;20040;-57
2022/05/28 09:16:47;;;;;;;0.40;0.22;;;;;;;14.03;71.38;101363.78;5015615;28;20036;-58
2022/05/28 09:19:20;;;;;;;0.43;0.30;;;;;;;13.85;71.97;101385.22;5012409;28;20034;-58
2022/05/28 09:21:48;;;;;;;0.20;0.20;;;;;;;13.95;71.63;101370.25;5016786;28;20025;-58
2022/05/28 09:24:21;;;;;;;0.40;0.30;;;;;;;14.15;71.09;101375.50;5005600;28;20382;-58
2022/05/28 09:26:59;;;;;;;1.90;0.20;;;;;;;14.14;70.86;101391.88;5027072;28;20478;-61
2022/05/28 09:29:52;;;;;;;0.28;0.10;;;;;;;14.27;70.52;101395.34;5030342;28;20029;-58
2022/05/28 09:32:55;;;;;;;0.15;0.15;;;;;;;14.24;70.37;101395.75;5014153;28;20489;-58
2022/05/28 09:35:40;;;;;;;0.38;0.20;;;;;;;14.25;70.47;101391.19;5022057;28;20071;-58
2022/05/28 09:38:17;;;;;;;1.95;0.20;;;;;;;14.43;69.61;101379.69;5033116;28;20048;-58
2022/05/28 09:40:58;;;;;;;0.30;0.10;;;;;;;14.34;69.88;101381.81;5030331;28;20125;-58
2022/05/28 09:43:39;;;;;;;0.15;0.10;;;;;;;14.29;69.89;101378.97;5013539;28;20028;-58
2022/05/28 09:46:18;;;;;;;0.10;0.10;;;;;;;14.37;69.68;101372.47;5021595;28;20030;-59
2022/05/28 09:48:46;;;;;;;0.25;0.10;;;;;;;14.21;69.96;101376.50;5014222;28;20025;-58
2022/05/28 09:51:27;;;;;;;0.00;0.00;;;;;;;14.35;69.86;101372.69;5013808;28;20021;-58
2022/05/28 09:54:22;;;;;;;0.63;0.10;;;;;;;14.43;68.90;101369.72;5013325;28;20117;-58
2022/05/28 09:56:55;;;;;;;0.20;0.20;;;;;;;14.26;69.85;101365.91;5026263;28;20393;-58
2022/05/28 09:59:37;;;;;;;0.10;0.10;;;;;;;14.31;69.87;101355.31;5030937;28;20486;-58
2022/05/28 10:02:34;;;;;;;0.52;0.10;;;;;;;14.23;70.21;101352.91;5029241;28;20052;-58
2022/05/28 10:05:08;;;;;;;0.10;0.10;;;;;;;14.27;70.11;101354.94;5026751;28;20046;-58
2022/05/28 10:07:48;;;;;;;0.47;0.10;;;;;;;14.29;70.11;101357.41;5012741;28;20033;-58
2022/05/28 10:10:30;;;;;;;0.35;0.13;;;;;;;14.47;69.55;101354.00;5031118;28;20155;-58
2022/05/28 10:13:15;;;;;;;0.38;0.13;;;;;;;14.22;70.23;101349.38;5010064;28;20113;-58
2022/05/28 10:15:55;;;;;;;0.13;0.13;;;;;;;14.38;69.52;101344.50;5024890;28;20049;-58
2022/05/28 10:18:25;;;;;;;0.30;0.20;;;;;;;14.36;69.72;101346.59;5018758;28;20034;-58
2022/05/28 10:21:06;;;;;;;0.47;0.20;;;;;;;14.39;69.31;101336.22;5016292;28;20036;-57
2022/05/28 10:23:35;;;;;;;0.20;0.10;;;;;;;14.42;69.32;101341.16;5015204;28;20046;-58
2022/05/28 10:26:03;;;;;;;0.03;0.03;;;;;;;14.37;69.06;101340.16;5013128;28;20029;-58
2022/05/28 10:28:48;;;;;;;0.10;0.10;;;;;;;14.32;69.19;101335.41;5030583;28;20040;-58
2022/05/28 10:31:31;;;;;;;0.10;0.10;;;;;;;14.26;69.52;101320.97;5026916;28;20033;-58
2022/05/28 10:33:58;;;;;;;0.10;0.10;;;;;;;14.27;69.46;101322.63;5027451;28;20057;-58
2022/05/28 10:36:28;;;;;;;0.10;0.10;;;;;;;14.31;69.46;101309.53;5028060;28;20374;-58
2022/05/28 10:39:11;;;;;;;0.40;0.20;;;;;;;14.45;69.06;101307.59;5032088;28;20069;-58
2022/05/28 10:41:38;;;;;;;0.20;0.20;;;;;;;14.18;70.48;101309.66;4994538;28;20517;-58
2022/05/28 10:44:05;;;;;;;0.30;0.20;;;;;;;14.03;71.31;101314.50;5019661;28;20072;-57
2022/05/28 10:46:32;;;;;;;3.83;0.30;;;;;;;14.10;71.08;101316.13;5015539;28;20033;-57
2022/05/28 10:49:07;;;;;;;0.40;0.28;;;;;;;14.11;71.08;101327.72;5027285;28;20036;-58
2022/05/28 10:52:00;;;;;;;0.32;0.20;;;;;;;14.06;71.49;101328.38;5013793;28;20038;-58
2022/05/28 10:55:04;;;;;;;1.23;0.28;;;;;;;14.13;70.98;101326.44;5012432;28;20481;-58
2022/05/28 10:57:51;;;;;;;0.20;0.20;;;;;;;14.26;71.05;101322.84;5020301;28;20033;-57
2022/05/28 11:00:59;;;;;;;0.88;0.47;;;;;;;14.28;71.43;101342.31;5025455;28;20029;-58
2022/05/28 11:04:01;;;;;;;0.32;0.32;;;;;;;14.24;71.28;101338.38;4984420;28;20038;-58
2022/05/28 11:07:08;;;;;;;0.35;0.35;;;;;;;14.23;71.22;101339.44;5023806;28;20036;-58
2022/05/28 11:09:59;;;;;;;1.00;0.50;;;;;;;14.16;71.60;101338.66;5028242;28;20037;-57
2022/05/28 11:12:36;;;;;;;0.40;0.40;;;;;;;14.30;71.59;101336.69;5010740;28;20516;-58
2022/05/28 11:15:30;;;;;;;0.40;0.40;;;;;;;14.21;71.93;101347.75;4996212;28;20029;-58
2022/05/28 11:18:17;;;;;;;0.63;0.40;;;;;;;14.22;71.93;101345.88;5011979;28;20577;-58
2022/05/28 11:21:23;;;;;;;0.30;0.30;;;;;;;14.23;71.56;101342.97;5012316;28;20042;-58
2022/05/28 11:24:09;;;;;;;0.93;0.60;;;;;;;14.17;72.33;101332.25;5022464;28;20084;-58
2022/05/28 11:26:35;;;;;;;1.05;0.50;;;;;;;14.05;72.34;101333.94;5025084;28;20038;-58
2022/05/28 11:29:07;;;;;;;0.55;0.40;;;;;;;13.93;73.21;101341.88;5029718;28;20042;-58
2022/05/28 11:31:59;;;;;;;1.08;0.40;;;;;;;14.02;72.61;101335.22;5021231;28;20538;-58
2022/05/28 11:34:34;;;;;;;0.50;0.50;;;;;;;14.12;72.30;101332.88;5027954;28;20376;-58
2022/05/28 11:37:10;;;;;;;0.50;0.40;;;;;;;14.11;72.39;101335.81;5029008;28;20034;-58
2022/05/28 11:39:42;;;;;;;0.22;0.22;;;;;;;13.96;72.74;101342.28;5029704;28;20029;-58
2022/05/28 11:42:20;;;;;;;0.60;0.52;;;;;;;14.13;72.39;101331.00;5031522;28;20026;-58
2022/05/28 11:44:57;;;;;;;0.40;0.40;;;;;;;14.15;72.11;101331.59;5029299;28;20029;-58
2022/05/28 11:47:32;;;;;;;0.50;0.45;;;;;;;14.16;72.31;101338.66;5019363;28;20397;-58